sensor_id;sensor_type;location;lat;lon;timestamp;pressure;altitude;pressure_sealevel;temperature;humidity
18988;BME280;5494;51.796;10.952;2023-05-06T00:01:37;98958.28;;;13.89;100.00
18988;BME280;5494;51.796;10.952;2023-05-06T00:04:05;98956.88;;;13.83;100.00
18988;BME280;5494;51.796;10.952;2023-05-06T00:06:33;98951.97;;;13.78;100.00
18988;BME280;5494;51.796;10.952;2023-05-06T00:09:01;98946.56;;;13.82;100.00
18988;BME280;5494;51.796;10.952;2023-05-06T00:11:29;98948.81;;;13.73;100.00
18988;BME280;5494;51.796;10.952;2023-05-06T00:13:58;98951.38;;;13.61;100.00
18988;BME280;5494;51.796;10.952;2023-05-06T00:16:26;98949.28;;;13.66;100.00
18988;BME280;5494;51.796;10.952;2023-05-06T00:18:56;98943.50;;;13.75;100.00
18988;BME280;5494;51.796;10.952;2023-05-06T00:21:24;98936.19;;;13.80;100.00
18988;BME280;5494;51.796;10.952;2023-05-06T00:23:52;98940.66;;;13.78;100.00
18988;BME280;5494;51.796;10.952;2023-05-06T00:26:20;98943.50;;;13.75;100.00
18988;BME280;5494;51.796;10.952;2023-05-06T00:28:48;98932.19;;;13.74;100.00
18988;BME280;5494;51.796;10.952;2023-05-06T00:31:16;98941.72;;;13.75;100.00
18988;BME280;5494;51.796;10.952;2023-05-06T00:33:44;98933.31;;;13.70;100.00
18988;BME280;5494;51.796;10.952;2023-05-06T00:36:14;98933.44;;;13.69;100.00
18988;BME280;5494;51.796;10.952;2023-05-06T00:38:41;98924.31;;;13.62;100.00
18988;BME280;5494;51.796;10.952;2023-05-06T00:41:09;98930.97;;;13.53;100.00
18988;BME280;5494;51.796;10.952;2023-05-06T00:43:37;98929.19;;;13.54;100.00
18988;BME280;5494;51.796;10.952;2023-05-06T00:46:08;98929.19;;;13.54;100.00
18988;BME280;5494;51.796;10.952;2023-05-06T00:48:37;98929.47;;;13.49;100.00
18988;BME280;5494;51.796;10.952;2023-05-06T00:51:05;98928.38;;;13.39;100.00
18988;BME280;5494;51.796;10.952;2023-05-06T00:53:35;98945.34;;;13.46;100.00
18988;BME280;5494;51.796;10.952;2023-05-06T00:56:04;98941.34;;;13.40;100.00
18988;BME280;5494;51.796;10.952;2023-05-06T00:58:33;98941.44;;;13.39;100.00
18988;BME280;5494;51.796;10.952;2023-05-06T01:01:02;98943.50;;;13.34;100.00
18988;BME280;5494;51.796;10.952;2023-05-06T01:03:30;98943.13;;;13.40;100.00
18988;BME280;5494;51.796;10.952;2023-05-06T01:06:08;98944.22;;;13.36;100.00
18988;BME280;5494;51.796;10.952;2023-05-06T01:08:50;98939.38;;;13.30;100.00
18988;BME280;5494;51.796;10.952;2023-05-06T01:11:30;98944.44;;;13.19;100.00
18988;BME280;5494;51.796;10.952;2023-05-06T01:14:10;98950.13;;;13.25;100.00
18988;BME280;5494;51.796;10.952;2023-05-06T01:16:40;98945.28;;;13.19;100.00
18988;BME280;5494;51.796;10.952;2023-05-06T01:19:32;98943.59;;;13.18;100.00
18988;BME280;5494;51.796;10.952;2023-05-06T01:22:05;98939.22;;;13.19;100.00
18988;BME280;5494;51.796;10.952;2023-05-06T01:24:36;98930.72;;;13.15;100.00
18988;BME280;5494;51.796;10.952;2023-05-06T01:27:04;98929.63;;;13.19;100.00
18988;BME280;5494;51.796;10.952;2023-05-06T01:29:35;98930.00;;;13.13;100.00
18988;BME280;5494;51.796;10.952;2023-05-06T01:32:24;98940.59;;;13.10;100.00
18988;BME280;5494;51.796;10.952;2023-05-06T01:35:02;98939.13;;;13.06;100.00
18988;BME280;5494;51.796;10.952;2023-05-06T01:37:42;98945.19;;;13.07;100.00
18988;BME280;5494;51.796;10.952;2023-05-06T01:40:15;98945.44;;;13.02;100.00
18988;BME280;5494;51.796;10.952;2023-05-06T01:42:47;98952.88;;;13.08;100.00
18988;BME280;5494;51.796;10.952;2023-05-06T01:45:18;98949.19;;;13.12;100.00
18988;BME280;5494;51.796;10.952;2023-05-06T01:47:49;98951.88;;;13.11;100.00
18988;BME280;5494;51.796;10.952;2023-05-06T01:50:17;98957.88;;;13.27;100.00
18988;BME280;5494;51.796;10.952;2023-05-06T01:52:56;98965.13;;;13.36;100.00
18988;BME280;5494;51.796;10.952;2023-05-06T01:55:27;98967.34;;;13.28;100.00
18988;BME280;5494;51.796;10.952;2023-05-06T01:57:55;98963.81;;;13.15;100.00
18988;BME280;5494;51.796;10.952;2023-05-06T02:00:24;98968.19;;;13.14;100.00
18988;BME280;5494;51.796;10.952;2023-05-06T02:02:52;98969.88;;;13.15;100.00
18988;BME280;5494;51.796;10.952;2023-05-06T02:05:20;98967.72;;;13.22;100.00
18988;BME280;5494;51.796;10.952;2023-05-06T02:07:53;98964.19;;;13.23;100.00
18988;BME280;5494;51.796;10.952;2023-05-06T02:10:21;98971.00;;;13.25;100.00
18988;BME280;5494;51.796;10.952;2023-05-06T02:12:57;98969.31;;;13.24;100.00
18988;BME280;5494;51.796;10.952;2023-05-06T02:15:26;98967.94;;;13.19;100.00
18988;BME280;5494;51.796;10.952;2023-05-06T02:17:54;98960.09;;;13.19;100.00
18988;BME280;5494;51.796;10.952;2023-05-06T02:20:23;98968.03;;;13.17;100.00
18988;BME280;5494;51.796;10.952;2023-05-06T02:22:51;98965.41;;;13.17;100.00
18988;BME280;5494;51.796;10.952;2023-05-06T02:25:19;98957.13;;;13.25;100.00
18988;BME280;5494;51.796;10.952;2023-05-06T02:27:47;98966.34;;;13.30;100.00
18988;BME280;5494;51.796;10.952;2023-05-06T02:30:17;98964.09;;;13.38;100.00
18988;BME280;5494;51.796;10.952;2023-05-06T02:32:45;98970.06;;;13.40;100.00
18988;BME280;5494;51.796;10.952;2023-05-06T02:35:14;98965.13;;;13.36;100.00
18988;BME280;5494;51.796;10.952;2023-05-06T02:37:42;98966.88;;;13.35;100.00
18988;BME280;5494;51.796;10.952;2023-05-06T02:40:11;98971.09;;;13.38;100.00
18988;BME280;5494;51.796;10.952;2023-05-06T02:42:39;98970.63;;;13.31;100.00
18988;BME280;5494;51.796;10.952;2023-05-06T02:45:08;98966.16;;;13.19;100.00
18988;BME280;5494;51.796;10.952;2023-05-06T02:47:38;98972.50;;;13.15;100.00
18988;BME280;5494;51.796;10.952;2023-05-06T02:50:07;98976.38;;;13.08;100.00
18988;BME280;5494;51.796;10.952;2023-05-06T02:52:35;98968.75;;;13.05;100.00
18988;BME280;5494;51.796;10.952;2023-05-06T02:55:04;98963.91;;;12.99;100.00
18988;BME280;5494;51.796;10.952;2023-05-06T02:57:32;98959.88;;;12.93;100.00
18988;BME280;5494;51.796;10.952;2023-05-06T03:00:00;98963.63;;;12.89;100.00
18988;BME280;5494;51.796;10.952;2023-05-06T03:02:28;98961.91;;;12.74;100.00
18988;BME280;5494;51.796;10.952;2023-05-06T03:04:57;98963.69;;;12.74;100.00
18988;BME280;5494;51.796;10.952;2023-05-06T03:07:25;98959.22;;;12.76;100.00
18988;BME280;5494;51.796;10.952;2023-05-06T03:09:53;98958.75;;;12.69;100.00
18988;BME280;5494;51.796;10.952;2023-05-06T03:12:22;98952.22;;;12.62;100.00
18988;BME280;5494;51.796;10.952;2023-05-06T03:14:50;98961.25;;;12.56;100.00
18988;BME280;5494;51.796;10.952;2023-05-06T03:17:18;98957.88;;;12.54;100.00
18988;BME280;5494;51.796;10.952;2023-05-06T03:19:47;98964.41;;;12.47;100.00
18988;BME280;5494;51.796;10.952;2023-05-06T03:22:17;98969.06;;;12.56;100.00
18988;BME280;5494;51.796;10.952;2023-05-06T03:24:46;98961.97;;;12.58;100.00
18988;BME280;5494;51.796;10.952;2023-05-06T03:27:14;98962.75;;;12.60;100.00
18988;BME280;5494;51.796;10.952;2023-05-06T03:29:44;98960.97;;;12.61;100.00
18988;BME280;5494;51.796;10.952;2023-05-06T03:32:13;98971.69;;;12.56;100.00
18988;BME280;5494;51.796;10.952;2023-05-06T03:34:43;98969.00;;;12.58;100.00
18988;BME280;5494;51.796;10.952;2023-05-06T03:37:17;98966.94;;;12.63;100.00
18988;BME280;5494;51.796;10.952;2023-05-06T03:39:50;98968.41;;;12.53;100.00
18988;BME280;5494;51.796;10.952;2023-05-06T03:42:20;98971.59;;;12.58;100.00
18988;BME280;5494;51.796;10.952;2023-05-06T03:44:48;98976.06;;;12.56;100.00
18988;BME280;5494;51.796;10.952;2023-05-06T03:47:17;98973.25;;;12.59;100.00
18988;BME280;5494;51.796;10.952;2023-05-06T03:49:45;98970.00;;;12.55;100.00
18988;BME280;5494;51.796;10.952;2023-05-06T03:52:13;98981.91;;;12.59;100.00
18988;BME280;5494;51.796;10.952;2023-05-06T03:54:43;98972.91;;;12.51;100.00
18988;BME280;5494;51.796;10.952;2023-05-06T03:57:11;98975.38;;;12.52;100.00
18988;BME280;5494;51.796;10.952;2023-05-06T03:59:39;98977.25;;;12.50;100.00
18988;BME280;5494;51.796;10.952;2023-05-06T04:02:08;98979.50;;;12.56;100.00
18988;BME280;5494;51.796;10.952;2023-05-06T04:04:37;98977.38;;;12.63;100.00
18988;BME280;5494;51.796;10.952;2023-05-06T04:07:04;98977.78;;;12.71;100.00
18988;BME280;5494;51.796;10.952;2023-05-06T04:09:32;98970.66;;;12.59;100.00
18988;BME280;5494;51.796;10.952;2023-05-06T04:12:06;98974.84;;;12.61;100.00
18988;BME280;5494;51.796;10.952;2023-05-06T04:14:35;98975.38;;;12.52;100.00
18988;BME280;5494;51.796;10.952;2023-05-06T04:17:03;98980.59;;;12.52;100.00
18988;BME280;5494;51.796;10.952;2023-05-06T04:19:31;98980.81;;;12.63;100.00
18988;BME280;5494;51.796;10.952;2023-05-06T04:21:59;98988.53;;;12.51;100.00
18988;BME280;5494;51.796;10.952;2023-05-06T04:24:28;98987.34;;;12.56;100.00
18988;BME280;5494;51.796;10.952;2023-05-06T04:26:57;98986.78;;;12.66;100.00
18988;BME280;5494;51.796;10.952;2023-05-06T04:29:28;99000.94;;;12.61;100.00
18988;BME280;5494;51.796;10.952;2023-05-06T04:31:59;98996.88;;;12.72;100.00
18988;BME280;5494;51.796;10.952;2023-05-06T04:34:30;98993.50;;;12.70;100.00
18988;BME280;5494;51.796;10.952;2023-05-06T04:37:00;99000.97;;;12.76;100.00
18988;BME280;5494;51.796;10.952;2023-05-06T04:39:50;99003.88;;;12.85;100.00
18988;BME280;5494;51.796;10.952;2023-05-06T04:42:20;99009.75;;;12.89;100.00
18988;BME280;5494;51.796;10.952;2023-05-06T04:45:03;99007.78;;;12.78;100.00
18988;BME280;5494;51.796;10.952;2023-05-06T04:47:34;99006.94;;;12.78;100.00
18988;BME280;5494;51.796;10.952;2023-05-06T04:50:04;99012.53;;;12.72;100.00
18988;BME280;5494;51.796;10.952;2023-05-06T04:52:32;99008.25;;;12.85;100.00
18988;BME280;5494;51.796;10.952;2023-05-06T04:55:00;99010.84;;;12.71;100.00
18988;BME280;5494;51.796;10.952;2023-05-06T04:57:30;99010.84;;;12.71;100.00
18988;BME280;5494;51.796;10.952;2023-05-06T04:59:58;99013.28;;;12.88;100.00
18988;BME280;5494;51.796;10.952;2023-05-06T05:02:28;99011.13;;;12.94;100.00
18988;BME280;5494;51.796;10.952;2023-05-06T05:04:56;99010.13;;;12.97;100.00
18988;BME280;5494;51.796;10.952;2023-05-06T05:07:24;99014.41;;;12.98;100.00
18988;BME280;5494;51.796;10.952;2023-05-06T05:09:52;99011.41;;;12.90;100.00
18988;BME280;5494;51.796;10.952;2023-05-06T05:12:21;99014.41;;;12.98;100.00
18988;BME280;5494;51.796;10.952;2023-05-06T05:14:50;99017.94;;;12.97;100.00
18988;BME280;5494;51.796;10.952;2023-05-06T05:17:18;99016.44;;;13.07;100.00
18988;BME280;5494;51.796;10.952;2023-05-06T05:19:50;99014.81;;;13.06;100.00
18988;BME280;5494;51.796;10.952;2023-05-06T05:22:18;99024.63;;;13.17;100.00
18988;BME280;5494;51.796;10.952;2023-05-06T05:24:46;99021.06;;;13.18;100.00
18988;BME280;5494;51.796;10.952;2023-05-06T05:27:16;99022.28;;;13.26;100.00
18988;BME280;5494;51.796;10.952;2023-05-06T05:29:44;99023.69;;;13.32;100.00
18988;BME280;5494;51.796;10.952;2023-05-06T05:32:12;99020.06;;;13.20;100.00
18988;BME280;5494;51.796;10.952;2023-05-06T05:34:40;99019.69;;;13.26;100.00
18988;BME280;5494;51.796;10.952;2023-05-06T05:37:10;99029.19;;;13.27;100.00
18988;BME280;5494;51.796;10.952;2023-05-06T05:39:38;99025.84;;;13.25;100.00
18988;BME280;5494;51.796;10.952;2023-05-06T05:42:08;99032.53;;;13.44;100.00
18988;BME280;5494;51.796;10.952;2023-05-06T05:44:38;99036.19;;;13.55;100.00
18988;BME280;5494;51.796;10.952;2023-05-06T05:47:06;99039.03;;;13.65;100.00
18988;BME280;5494;51.796;10.952;2023-05-06T05:49:34;99035.00;;;13.88;100.00
18988;BME280;5494;51.796;10.952;2023-05-06T05:52:03;99034.22;;;14.00;100.00
18988;BME280;5494;51.796;10.952;2023-05-06T05:54:34;99039.34;;;14.01;100.00
18988;BME280;5494;51.796;10.952;2023-05-06T05:57:03;99036.66;;;14.03;100.00
18988;BME280;5494;51.796;10.952;2023-05-06T05:59:31;99047.00;;;13.90;100.00
18988;BME280;5494;51.796;10.952;2023-05-06T06:02:02;99053.53;;;13.97;100.00
18988;BME280;5494;51.796;10.952;2023-05-06T06:04:31;99045.81;;;13.96;100.00
18988;BME280;5494;51.796;10.952;2023-05-06T06:06:59;99045.44;;;13.88;100.00
18988;BME280;5494;51.796;10.952;2023-05-06T06:09:31;99052.28;;;13.76;100.00
18988;BME280;5494;51.796;10.952;2023-05-06T06:12:01;99058.16;;;13.65;100.00
18988;BME280;5494;51.796;10.952;2023-05-06T06:14:31;99062.47;;;13.52;100.00
18988;BME280;5494;51.796;10.952;2023-05-06T06:17:00;99056.50;;;13.50;100.00
18988;BME280;5494;51.796;10.952;2023-05-06T06:19:28;99063.59;;;13.34;100.00
18988;BME280;5494;51.796;10.952;2023-05-06T06:21:57;99066.22;;;13.34;100.00
18988;BME280;5494;51.796;10.952;2023-05-06T06:24:25;99062.38;;;13.25;100.00
18988;BME280;5494;51.796;10.952;2023-05-06T06:26:53;99062.94;;;13.30;100.00
18988;BME280;5494;51.796;10.952;2023-05-06T06:29:22;99062.56;;;13.36;100.00
18988;BME280;5494;51.796;10.952;2023-05-06T06:31:50;99067.53;;;13.41;100.00
18988;BME280;5494;51.796;10.952;2023-05-06T06:34:18;99075.22;;;13.71;100.00
18988;BME280;5494;51.796;10.952;2023-05-06T06:36:46;99073.03;;;14.06;100.00
18988;BME280;5494;51.796;10.952;2023-05-06T06:39:14;99071.91;;;14.37;100.00
18988;BME280;5494;51.796;10.952;2023-05-06T06:41:42;99070.34;;;14.61;100.00
18988;BME280;5494;51.796;10.952;2023-05-06T06:44:10;99076.44;;;14.74;100.00
18988;BME280;5494;51.796;10.952;2023-05-06T06:46:39;99074.81;;;14.86;100.00
18988;BME280;5494;51.796;10.952;2023-05-06T06:49:07;99071.28;;;15.00;100.00
18988;BME280;5494;51.796;10.952;2023-05-06T06:51:35;99075.34;;;15.16;100.00
18988;BME280;5494;51.796;10.952;2023-05-06T06:54:03;99075.47;;;15.27;100.00
18988;BME280;5494;51.796;10.952;2023-05-06T06:56:31;99081.75;;;15.37;100.00
18988;BME280;5494;51.796;10.952;2023-05-06T06:58:59;99078.38;;;15.35;100.00
18988;BME280;5494;51.796;10.952;2023-05-06T07:01:27;99081.13;;;15.34;100.00
18988;BME280;5494;51.796;10.952;2023-05-06T07:03:57;99082.59;;;15.25;100.00
18988;BME280;5494;51.796;10.952;2023-05-06T07:06:25;99082.38;;;15.41;100.00
18988;BME280;5494;51.796;10.952;2023-05-06T07:08:52;99089.50;;;15.52;100.00
18988;BME280;5494;51.796;10.952;2023-05-06T07:11:20;99087.66;;;15.54;100.00
18988;BME280;5494;51.796;10.952;2023-05-06T07:13:48;99086.38;;;15.47;100.00
18988;BME280;5494;51.796;10.952;2023-05-06T07:16:16;99092.13;;;15.64;100.00
18988;BME280;5494;51.796;10.952;2023-05-06T07:18:44;99097.06;;;15.82;98.48
18988;BME280;5494;51.796;10.952;2023-05-06T07:21:15;99102.50;;;15.79;99.30
18988;BME280;5494;51.796;10.952;2023-05-06T07:23:43;99096.84;;;15.72;99.78
18988;BME280;5494;51.796;10.952;2023-05-06T07:26:11;99112.25;;;15.51;100.00
18988;BME280;5494;51.796;10.952;2023-05-06T07:28:39;99120.19;;;15.37;100.00
18988;BME280;5494;51.796;10.952;2023-05-06T07:31:07;99116.97;;;15.21;100.00
18988;BME280;5494;51.796;10.952;2023-05-06T07:33:35;99116.63;;;15.13;100.00
18988;BME280;5494;51.796;10.952;2023-05-06T07:36:03;99119.34;;;14.98;100.00
18988;BME280;5494;51.796;10.952;2023-05-06T07:38:33;99126.34;;;14.98;100.00
18988;BME280;5494;51.796;10.952;2023-05-06T07:41:01;99122.78;;;14.99;100.00
18988;BME280;5494;51.796;10.952;2023-05-06T07:43:29;99125.19;;;15.02;100.00
18988;BME280;5494;51.796;10.952;2023-05-06T07:45:57;99124.09;;;15.31;100.00
18988;BME280;5494;51.796;10.952;2023-05-06T07:48:29;99114.97;;;15.50;100.00
18988;BME280;5494;51.796;10.952;2023-05-06T07:50:59;99121.56;;;15.43;100.00
18988;BME280;5494;51.796;10.952;2023-05-06T07:53:27;99123.66;;;15.50;100.00
18988;BME280;5494;51.796;10.952;2023-05-06T07:55:57;99127.44;;;15.46;100.00
18988;BME280;5494;51.796;10.952;2023-05-06T07:58:28;99135.81;;;15.38;100.00
18988;BME280;5494;51.796;10.952;2023-05-06T08:00:57;99126.19;;;15.39;100.00
18988;BME280;5494;51.796;10.952;2023-05-06T08:03:25;99121.13;;;15.23;100.00
18988;BME280;5494;51.796;10.952;2023-05-06T08:05:54;99130.75;;;14.97;100.00
18988;BME280;5494;51.796;10.952;2023-05-06T08:08:22;99128.66;;;15.03;100.00
18988;BME280;5494;51.796;10.952;2023-05-06T08:10:53;99137.16;;;15.19;100.00
18988;BME280;5494;51.796;10.952;2023-05-06T08:13:23;99133.28;;;15.37;100.00
18988;BME280;5494;51.796;10.952;2023-05-06T08:15:51;99135.41;;;15.45;98.79
18988;BME280;5494;51.796;10.952;2023-05-06T08:18:19;99136.78;;;15.63;97.89
18988;BME280;5494;51.796;10.952;2023-05-06T08:20:49;99141.75;;;15.55;96.51
18988;BME280;5494;51.796;10.952;2023-05-06T08:23:17;99146.56;;;15.61;96.69
18988;BME280;5494;51.796;10.952;2023-05-06T08:25:45;99148.50;;;15.45;97.75
18988;BME280;5494;51.796;10.952;2023-05-06T08:28:13;99154.50;;;15.47;93.64
18988;BME280;5494;51.796;10.952;2023-05-06T08:30:42;99155.19;;;15.36;95.90
18988;BME280;5494;51.796;10.952;2023-05-06T08:33:13;99168.00;;;15.28;96.02
18988;BME280;5494;51.796;10.952;2023-05-06T08:35:41;99167.09;;;15.15;97.41
18988;BME280;5494;51.796;10.952;2023-05-06T08:38:10;99170.19;;;15.34;99.34
18988;BME280;5494;51.796;10.952;2023-05-06T08:40:42;99159.50;;;15.37;98.71
18988;BME280;5494;51.796;10.952;2023-05-06T08:43:12;99166.06;;;15.69;97.00
18988;BME280;5494;51.796;10.952;2023-05-06T08:45:42;99166.47;;;15.89;97.53
18988;BME280;5494;51.796;10.952;2023-05-06T08:48:11;99161.56;;;16.21;94.94
18988;BME280;5494;51.796;10.952;2023-05-06T08:50:41;99162.06;;;16.75;89.39
18988;BME280;5494;51.796;10.952;2023-05-06T08:53:11;99159.25;;;16.89;85.97
18988;BME280;5494;51.796;10.952;2023-05-06T08:55:40;99165.44;;;16.88;83.57
18988;BME280;5494;51.796;10.952;2023-05-06T08:58:12;99164.06;;;16.95;83.87
18988;BME280;5494;51.796;10.952;2023-05-06T09:00:45;99170.88;;;16.74;85.67
18988;BME280;5494;51.796;10.952;2023-05-06T09:03:14;99161.88;;;17.13;83.80
18988;BME280;5494;51.796;10.952;2023-05-06T09:05:42;99166.84;;;17.05;81.51
18988;BME280;5494;51.796;10.952;2023-05-06T09:08:10;99162.44;;;17.05;81.75
18988;BME280;5494;51.796;10.952;2023-05-06T09:10:43;99166.47;;;17.33;79.03
18988;BME280;5494;51.796;10.952;2023-05-06T09:13:13;99170.19;;;17.42;74.71
18988;BME280;5494;51.796;10.952;2023-05-06T09:15:44;99172.94;;;17.51;74.36
18988;BME280;5494;51.796;10.952;2023-05-06T09:18:13;99175.06;;;17.92;75.13
18988;BME280;5494;51.796;10.952;2023-05-06T09:20:44;99179.50;;;18.03;70.71
18988;BME280;5494;51.796;10.952;2023-05-06T09:23:15;99164.91;;;17.88;71.42
18988;BME280;5494;51.796;10.952;2023-05-06T09:25:46;99169.19;;;17.78;71.58
18988;BME280;5494;51.796;10.952;2023-05-06T09:28:15;99161.72;;;17.49;73.65
18988;BME280;5494;51.796;10.952;2023-05-06T09:30:45;99170.41;;;17.39;76.18
18988;BME280;5494;51.796;10.952;2023-05-06T09:33:14;99169.81;;;17.35;74.34
18988;BME280;5494;51.796;10.952;2023-05-06T09:35:43;99169.44;;;17.28;76.46
18988;BME280;5494;51.796;10.952;2023-05-06T09:38:11;99185.81;;;17.08;79.05
18988;BME280;5494;51.796;10.952;2023-05-06T09:40:39;99185.22;;;17.40;77.88
18988;BME280;5494;51.796;10.952;2023-05-06T09:43:08;99180.13;;;17.49;77.28
18988;BME280;5494;51.796;10.952;2023-05-06T09:45:36;99178.19;;;17.97;74.92
18988;BME280;5494;51.796;10.952;2023-05-06T09:48:07;99180.53;;;18.34;72.05
18988;BME280;5494;51.796;10.952;2023-05-06T09:50:36;99162.63;;;19.14;68.06
18988;BME280;5494;51.796;10.952;2023-05-06T09:53:05;99169.09;;;19.62;64.59
18988;BME280;5494;51.796;10.952;2023-05-06T09:55:34;99167.53;;;19.81;62.46
18988;BME280;5494;51.796;10.952;2023-05-06T09:58:04;99167.09;;;19.76;61.40
18988;BME280;5494;51.796;10.952;2023-05-06T10:00:34;99174.47;;;19.40;63.51
18988;BME280;5494;51.796;10.952;2023-05-06T10:03:05;99183.06;;;18.89;66.52
18988;BME280;5494;51.796;10.952;2023-05-06T10:05:35;99180.72;;;18.75;66.32
18988;BME280;5494;51.796;10.952;2023-05-06T10:08:04;99183.91;;;18.36;67.45
18988;BME280;5494;51.796;10.952;2023-05-06T10:10:33;99185.59;;;18.15;69.15
18988;BME280;5494;51.796;10.952;2023-05-06T10:13:04;99191.91;;;18.45;69.32
18988;BME280;5494;51.796;10.952;2023-05-06T10:15:32;99186.47;;;18.80;67.19
18988;BME280;5494;51.796;10.952;2023-05-06T10:18:01;99188.78;;;18.74;66.59
18988;BME280;5494;51.796;10.952;2023-05-06T10:20:34;99180.72;;;18.75;65.05
18988;BME280;5494;51.796;10.952;2023-05-06T10:23:12;99180.78;;;18.53;62.86
18988;BME280;5494;51.796;10.952;2023-05-06T10:25:44;99166.09;;;18.82;62.90
18988;BME280;5494;51.796;10.952;2023-05-06T10:28:13;99182.28;;;19.10;62.95
18988;BME280;5494;51.796;10.952;2023-05-06T10:30:57;99169.41;;;19.27;61.30
18988;BME280;5494;51.796;10.952;2023-05-06T10:33:27;99166.44;;;19.42;60.44
18988;BME280;5494;51.796;10.952;2023-05-06T10:36:09;99161.56;;;19.58;59.33
18988;BME280;5494;51.796;10.952;2023-05-06T10:38:42;99162.47;;;19.47;60.14
18988;BME280;5494;51.796;10.952;2023-05-06T10:41:12;99170.28;;;19.38;58.99
18988;BME280;5494;51.796;10.952;2023-05-06T10:43:42;99168.19;;;19.52;59.65
18988;BME280;5494;51.796;10.952;2023-05-06T10:46:12;99155.19;;;19.60;58.67
18988;BME280;5494;51.796;10.952;2023-05-06T10:49:23;99158.16;;;19.97;59.93
18988;BME280;5494;51.796;10.952;2023-05-06T10:52:12;99164.84;;;20.01;58.15
18988;BME280;5494;51.796;10.952;2023-05-06T10:54:51;99168.94;;;19.64;58.11
18988;BME280;5494;51.796;10.952;2023-05-06T10:57:21;99169.25;;;19.91;57.61
18988;BME280;5494;51.796;10.952;2023-05-06T10:59:53;99161.66;;;20.38;56.56
18988;BME280;5494;51.796;10.952;2023-05-06T11:02:21;99167.63;;;19.17;58.58
18988;BME280;5494;51.796;10.952;2023-05-06T11:04:58;99167.56;;;18.75;60.87
18988;BME280;5494;51.796;10.952;2023-05-06T11:07:28;99175.03;;;18.37;65.27
18988;BME280;5494;51.796;10.952;2023-05-06T11:09:58;99173.13;;;18.28;67.42
18988;BME280;5494;51.796;10.952;2023-05-06T11:12:45;99171.75;;;19.10;64.05
18988;BME280;5494;51.796;10.952;2023-05-06T11:15:20;99168.44;;;19.28;59.74
18988;BME280;5494;51.796;10.952;2023-05-06T11:17:52;99168.75;;;19.35;59.68
18988;BME280;5494;51.796;10.952;2023-05-06T11:20:22;99166.59;;;18.87;60.82
18988;BME280;5494;51.796;10.952;2023-05-06T11:22:53;99168.84;;;18.92;62.18
18988;BME280;5494;51.796;10.952;2023-05-06T11:25:38;99161.53;;;19.48;59.84
18988;BME280;5494;51.796;10.952;2023-05-06T11:28:09;99176.41;;;19.59;59.09
18988;BME280;5494;51.796;10.952;2023-05-06T11:30:40;99171.03;;;19.60;59.81
18988;BME280;5494;51.796;10.952;2023-05-06T11:33:18;99170.69;;;19.75;59.01
18988;BME280;5494;51.796;10.952;2023-05-06T11:35:47;99171.31;;;20.18;57.44
18988;BME280;5494;51.796;10.952;2023-05-06T11:38:16;99183.22;;;19.82;54.13
18988;BME280;5494;51.796;10.952;2023-05-06T11:40:44;99173.41;;;19.94;56.89
18988;BME280;5494;51.796;10.952;2023-05-06T11:43:13;99174.88;;;20.38;55.77
18988;BME280;5494;51.796;10.952;2023-05-06T11:45:44;99180.53;;;20.33;54.72
18988;BME280;5494;51.796;10.952;2023-05-06T11:48:12;99179.81;;;20.31;56.80
18988;BME280;5494;51.796;10.952;2023-05-06T11:50:44;99186.56;;;20.15;55.44
18988;BME280;5494;51.796;10.952;2023-05-06T11:53:13;99185.34;;;19.88;56.71
18988;BME280;5494;51.796;10.952;2023-05-06T11:55:45;99182.19;;;19.32;60.04
18988;BME280;5494;51.796;10.952;2023-05-06T11:58:14;99188.28;;;19.33;61.58
18988;BME280;5494;51.796;10.952;2023-05-06T12:00:46;99190.06;;;19.11;63.13
18988;BME280;5494;51.796;10.952;2023-05-06T12:03:17;99178.38;;;19.25;63.73
18988;BME280;5494;51.796;10.952;2023-05-06T12:05:46;99182.25;;;19.21;64.17
18988;BME280;5494;51.796;10.952;2023-05-06T12:08:16;99187.34;;;19.02;63.95
18988;BME280;5494;51.796;10.952;2023-05-06T12:10:58;99177.91;;;18.99;63.86
18988;BME280;5494;51.796;10.952;2023-05-06T12:13:28;99182.13;;;18.91;65.88
18988;BME280;5494;51.796;10.952;2023-05-06T12:15:58;99175.13;;;19.33;60.36
18988;BME280;5494;51.796;10.952;2023-05-06T12:18:27;99168.38;;;19.40;59.38
18988;BME280;5494;51.796;10.952;2023-05-06T12:21:00;99164.69;;;19.73;55.22
18988;BME280;5494;51.796;10.952;2023-05-06T12:23:29;99167.28;;;19.84;56.50
18988;BME280;5494;51.796;10.952;2023-05-06T12:26:03;99169.56;;;19.98;55.45
18988;BME280;5494;51.796;10.952;2023-05-06T12:28:35;99167.13;;;19.85;57.63
18988;BME280;5494;51.796;10.952;2023-05-06T12:31:17;99173.25;;;19.65;56.71
18988;BME280;5494;51.796;10.952;2023-05-06T12:33:47;99174.72;;;19.37;58.23
18988;BME280;5494;51.796;10.952;2023-05-06T12:36:17;99181.91;;;19.46;57.44
18988;BME280;5494;51.796;10.952;2023-05-06T12:38:49;99179.94;;;18.96;59.62
18988;BME280;5494;51.796;10.952;2023-05-06T12:41:20;99183.53;;;18.40;62.65
18988;BME280;5494;51.796;10.952;2023-05-06T12:43:49;99174.44;;;18.67;62.00
18988;BME280;5494;51.796;10.952;2023-05-06T12:46:18;99166.91;;;18.94;62.88
18988;BME280;5494;51.796;10.952;2023-05-06T12:48:57;99174.22;;;18.91;61.39
18988;BME280;5494;51.796;10.952;2023-05-06T12:51:26;99173.25;;;19.44;56.57
18988;BME280;5494;51.796;10.952;2023-05-06T12:53:56;99171.41;;;19.77;55.83
18988;BME280;5494;51.796;10.952;2023-05-06T12:56:25;99175.56;;;20.10;55.50
18988;BME280;5494;51.796;10.952;2023-05-06T12:58:58;99170.28;;;19.79;54.82
18988;BME280;5494;51.796;10.952;2023-05-06T13:01:26;99175.13;;;19.74;56.61
18988;BME280;5494;51.796;10.952;2023-05-06T13:03:55;99173.22;;;19.55;56.93
18988;BME280;5494;51.796;10.952;2023-05-06T13:06:23;99174.25;;;19.11;57.29
18988;BME280;5494;51.796;10.952;2023-05-06T13:08:51;99179.25;;;18.94;59.14